Time;durP1;ratioP1;P1;durP2;ratioP2;P2;SDS_P1;SDS_P2;PMS_P1;PMS_P2;Temp;Humidity;BMP_temperature;BMP_pressure;BME280_temperature;BME280_humidity;BME280_pressure;Samples;Min_cycle;Max_cycle;Signal;HPM_P1;HPM_P2
2022/01/19 00:01:35;;;;;;;12.80;7.43;;;;;;;4.57;62.03;100712.31;5181769;28;20156;-70
2022/01/19 00:04:25;;;;;;;12.65;7.43;;;;;;;4.41;62.80;100709.50;5181955;28;20550;-71
2022/01/19 00:07:16;;;;;;;14.60;8.43;;;;;;;4.21;63.14;100703.28;5176678;28;20528;-70
2022/01/19 00:10:11;;;;;;;17.42;8.13;;;;;;;4.23;62.80;100692.69;5177984;28;20187;-67
2022/01/19 00:13:00;;;;;;;16.38;7.88;;;;;;;4.01;63.58;100674.34;5179393;28;20057;-67
2022/01/19 00:15:52;;;;;;;12.35;7.55;;;;;;;3.53;63.99;100659.59;5180517;28;20072;-67
2022/01/19 00:18:41;;;;;;;14.45;7.43;;;;;;;3.44;64.36;100646.81;5180754;28;20061;-67
2022/01/19 00:21:33;;;;;;;16.63;7.90;;;;;;;3.51;64.26;100661.44;5171338;28;20186;-67
2022/01/19 00:24:23;;;;;;;12.95;7.55;;;;;;;3.71;63.83;100661.50;5178575;28;20135;-67
2022/01/19 00:27:13;;;;;;;14.07;7.47;;;;;;;3.43;64.01;100666.94;5181142;28;20054;-66
2022/01/19 00:30:05;;;;;;;13.75;7.57;;;;;;;3.21;65.21;100669.53;5177543;28;20619;-67
2022/01/19 00:32:55;;;;;;;13.73;7.43;;;;;;;3.06;65.51;100675.31;5176989;28;20045;-67
2022/01/19 00:35:47;;;;;;;11.95;7.75;;;;;;;2.70;65.62;100651.25;5184280;28;20155;-67
2022/01/19 00:38:37;;;;;;;12.00;7.38;;;;;;;2.84;65.45;100696.16;5180610;28;20418;-67
2022/01/19 00:41:26;;;;;;;14.95;7.57;;;;;;;2.74;65.71;100695.63;5180352;28;20056;-67
2022/01/19 00:44:16;;;;;;;15.65;8.13;;;;;;;2.75;66.12;100688.66;5184223;28;20053;-67
2022/01/19 00:47:06;;;;;;;15.75;8.60;;;;;;;2.68;66.36;100677.53;5183757;28;20052;-67
2022/01/19 00:49:56;;;;;;;16.63;8.93;;;;;;;2.83;65.88;100697.94;5178102;28;20053;-66
2022/01/19 00:52:46;;;;;;;16.05;7.93;;;;;;;2.58;66.15;100691.81;5184476;28;20061;-67
2022/01/19 00:55:37;;;;;;;14.65;9.07;;;;;;;2.55;66.26;100694.53;5183510;28;20050;-67
2022/01/19 00:58:27;;;;;;;14.23;8.70;;;;;;;2.50;66.84;100688.59;5183603;28;20133;-67
2022/01/19 01:01:17;;;;;;;15.25;9.60;;;;;;;2.50;67.55;100692.06;5181844;28;20100;-66
2022/01/19 01:04:08;;;;;;;18.50;9.75;;;;;;;2.28;67.20;100676.22;5180223;28;20103;-66
2022/01/19 01:06:59;;;;;;;18.00;9.05;;;;;;;2.27;67.25;100687.59;5183071;28;20188;-67
2022/01/19 01:09:49;;;;;;;19.00;10.38;;;;;;;2.33;67.22;100668.22;5184178;28;20048;-66
2022/01/19 01:12:54;;;;;;;20.02;10.43;;;;;;;2.42;67.67;100688.88;5184531;28;20435;-67
2022/01/19 01:18:49;;;;;;;22.15;10.75;;;;;;;2.42;68.43;100680.13;5172742;28;20061;-67
2022/01/19 01:21:40;;;;;;;19.35;10.48;;;;;;;2.16;67.87;100679.25;5184140;28;20052;-66
2022/01/19 01:24:30;;;;;;;19.55;11.10;;;;;;;2.20;67.29;100665.16;5180542;28;20168;-67
2022/01/19 01:27:21;;;;;;;22.15;10.95;;;;;;;2.11;66.97;100652.34;5182368;28;20073;-66
2022/01/19 01:30:11;;;;;;;22.52;12.32;;;;;;;2.13;67.97;100626.16;5176915;28;20077;-67
2022/01/19 01:33:02;;;;;;;26.00;12.30;;;;;;;2.32;68.50;100635.13;5179434;28;20544;-66
2022/01/19 01:35:53;;;;;;;26.85;13.30;;;;;;;2.17;68.24;100628.59;5177752;28;20526;-67
2022/01/19 01:38:45;;;;;;;21.63;12.20;;;;;;;2.05;67.71;100642.97;5183284;28;20457;-67
2022/01/19 01:41:36;;;;;;;23.92;13.35;;;;;;;2.23;68.42;100653.72;5182991;28;20065;-66
2022/01/19 01:44:38;;;;;;;25.63;13.25;;;;;;;2.08;68.71;100645.44;5182869;28;20068;-67
2022/01/19 01:47:30;;;;;;;24.75;13.02;;;;;;;2.22;68.51;100671.19;5183118;28;20053;-66
2022/01/19 01:53:32;;;;;;;26.58;13.98;;;;;;;2.17;68.19;100652.16;5182648;28;20135;-66
2022/01/19 01:56:22;;;;;;;27.55;14.15;;;;;;;2.48;67.10;100653.75;5182184;28;20463;-66
2022/01/19 01:59:24;;;;;;;27.40;14.55;;;;;;;2.15;67.96;100640.88;5178325;28;20190;-67
2022/01/19 02:02:34;;;;;;;25.70;12.77;;;;;;;1.94;67.34;100634.59;5178301;28;20062;-67
2022/01/19 02:05:27;;;;;;;24.98;12.23;;;;;;;1.79;68.24;100608.94;5181576;28;20052;-67
2022/01/19 02:08:22;;;;;;;21.50;11.95;;;;;;;1.76;67.38;100620.34;5178684;28;20073;-67
2022/01/19 02:23:55;;;;;;;19.10;11.27;;;;;;;1.41;68.97;100596.13;5176593;28;20046;-67
2022/01/19 02:26:59;;;;;;;25.17;12.15;;;;;;;1.77;68.98;100585.44;5175601;28;20524;-67
2022/01/19 02:42:25;;;;;;;19.42;10.95;;;;;;;1.21;68.54;100572.38;5167482;28;20105;-67
2022/01/19 02:51:14;;;;;;;23.55;12.40;;;;;;;1.09;68.39;100544.88;5180276;28;20049;-67
2022/01/19 02:54:04;;;;;;;21.30;10.90;;;;;;;1.09;68.17;100547.47;5181545;28;20179;-67
2022/01/19 02:56:58;;;;;;;26.30;12.50;;;;;;;1.00;68.66;100520.78;5181193;28;20546;-67
2022/01/19 03:08:59;;;;;;;30.23;14.35;;;;;;;1.12;69.87;100507.31;5176785;28;20187;-67
2022/01/19 03:11:51;;;;;;;31.10;16.13;;;;;;;1.35;69.61;100496.16;5182128;28;20534;-67
2022/01/19 03:14:41;;;;;;;40.88;18.20;;;;;;;1.40;70.42;100479.44;5173232;28;20053;-67
2022/01/19 03:17:31;;;;;;;36.92;16.33;;;;;;;1.33;70.14;100472.69;5180816;28;20141;-67
2022/01/19 03:20:21;;;;;;;33.50;15.43;;;;;;;1.26;70.33;100470.31;5176682;28;20042;-67
2022/01/19 03:23:19;;;;;;;26.88;15.40;;;;;;;1.28;69.63;100465.91;5179258;28;20099;-67
2022/01/19 03:26:10;;;;;;;35.30;16.08;;;;;;;1.32;70.18;100473.59;5176028;28;20512;-66
2022/01/19 03:29:20;;;;;;;32.65;16.88;;;;;;;1.40;69.86;100475.97;5165768;28;20556;-67
2022/01/19 03:32:11;;;;;;;27.25;14.85;;;;;;;1.05;69.38;100454.41;5179516;28;20107;-66
2022/01/19 03:35:02;;;;;;;27.08;14.30;;;;;;;1.10;69.36;100468.19;5181203;28;20050;-68
2022/01/19 03:37:52;;;;;;;30.63;14.45;;;;;;;0.81;69.29;100463.88;5177229;28;20057;-67
2022/01/19 03:40:43;;;;;;;27.75;14.80;;;;;;;0.50;71.86;100436.94;5180224;28;20050;-68
2022/01/19 03:43:33;;;;;;;32.28;15.30;;;;;;;0.92;71.52;100467.00;5176828;28;20041;-68
2022/01/19 03:46:34;;;;;;;26.17;13.80;;;;;;;0.74;71.08;100467.56;5180249;28;20412;-67
2022/01/19 03:49:27;;;;;;;29.52;12.75;;;;;;;0.75;71.22;100448.38;5176961;28;20100;-67
2022/01/19 03:52:19;;;;;;;31.85;14.15;;;;;;;0.74;70.07;100445.84;5179926;28;20109;-67
2022/01/19 03:55:11;;;;;;;23.23;13.38;;;;;;;0.78;69.45;100452.66;5178294;28;20531;-67
2022/01/19 03:58:01;;;;;;;26.60;12.80;;;;;;;0.69;69.91;100438.13;5178962;28;20064;-67
2022/01/19 04:00:55;;;;;;;25.00;13.40;;;;;;;0.92;70.13;100450.47;5177408;28;20077;-68
2022/01/19 04:09:50;;;;;;;30.50;15.07;;;;;;;1.10;69.83;100430.78;5187892;28;20050;-67
2022/01/19 04:15:31;;;;;;;28.80;13.75;;;;;;;0.78;69.83;100423.94;5186879;28;20128;-67
2022/01/19 04:18:21;;;;;;;29.17;13.98;;;;;;;0.73;69.67;100418.00;5186803;28;20407;-67
2022/01/19 04:21:13;;;;;;;24.45;13.93;;;;;;;0.62;69.72;100415.72;5182127;28;20496;-67
2022/01/19 04:24:04;;;;;;;31.88;13.73;;;;;;;0.45;69.79;100382.31;5185919;28;20061;-68
2022/01/19 04:30:12;;;;;;;26.20;13.48;;;;;;;0.55;69.76;100401.16;5175338;28;20056;-67
2022/01/19 04:33:21;;;;;;;30.85;13.90;;;;;;;0.52;69.96;100396.03;5183526;28;20408;-67
2022/01/19 04:36:27;;;;;;;27.92;13.75;;;;;;;0.31;69.13;100364.44;5171946;28;20049;-67
2022/01/19 04:49:02;;;;;;;45.53;21.30;;;;;;;1.39;70.39;100365.34;5194038;28;20558;-67
2022/01/19 05:04:12;;;;;;;46.90;21.10;;;;;;;0.23;75.25;100361.19;5178040;28;20048;-68
2022/01/19 05:07:19;;;;;;;48.10;19.83;;;;;;;0.68;72.77;100345.91;5194323;28;20523;-67
2022/01/19 05:13:38;;;;;;;40.75;19.45;;;;;;;0.78;73.28;100346.47;5186521;28;20061;-66
2022/01/19 05:16:29;;;;;;;45.08;20.92;;;;;;;1.01;71.17;100324.81;5186516;28;20124;-67
2022/01/19 05:19:19;;;;;;;47.78;20.67;;;;;;;1.12;70.76;100334.91;5184247;28;20057;-66
2022/01/19 05:22:09;;;;;;;42.90;19.88;;;;;;;1.02;70.70;100338.75;5183055;28;20147;-66
2022/01/19 05:25:09;;;;;;;44.78;20.05;;;;;;;0.96;70.43;100333.72;5223032;23;20117;-84
2022/01/19 05:28:07;;;;;;;39.50;20.23;;;;;;;0.63;71.21;100341.72;5219701;28;20056;-84
2022/01/19 05:30:57;;;;;;;44.55;20.08;;;;;;;0.44;73.09;100329.25;5193952;28;20060;-84
2022/01/19 05:33:48;;;;;;;43.20;20.92;;;;;;;0.54;72.15;100305.50;5198462;28;20123;-84
2022/01/19 05:36:38;;;;;;;40.15;20.42;;;;;;;0.65;72.77;100321.66;5205520;28;20406;-84
2022/01/19 05:39:42;;;;;;;45.03;20.17;;;;;;;0.55;72.10;100300.22;5198995;28;20053;-82
2022/01/19 05:42:48;;;;;;;41.90;20.20;;;;;;;0.61;72.88;100302.63;5208404;28;20044;-83
2022/01/19 05:45:39;;;;;;;42.30;20.33;;;;;;;0.75;71.49;100306.56;5184514;28;20048;-90
2022/01/19 05:48:36;;;;;;;45.88;19.65;;;;;;;0.61;71.25;100245.22;5191575;28;20045;-82
2022/01/19 05:51:26;;;;;;;47.30;21.60;;;;;;;0.74;70.79;100250.88;5214861;28;20476;-88
2022/01/19 05:54:20;;;;;;;46.88;21.50;;;;;;;1.02;70.36;100253.41;5190972;28;20048;-88
2022/01/19 05:57:10;;;;;;;34.27;16.03;;;;;;;0.98;70.44;100277.91;5181133;28;20100;-86
2022/01/19 06:00:07;;;;;;;68.25;24.27;;;;;;;1.20;70.24;100298.09;5186092;28;20284;-86
2022/01/19 06:03:11;;;;;;;50.78;20.70;;;;;;;1.03;71.06;100298.69;5200594;28;20048;-86
2022/01/19 06:06:20;;;;;;;45.70;21.48;;;;;;;0.92;71.35;100302.47;5198847;28;20042;-86
2022/01/19 06:09:37;;;;;;;44.08;20.52;;;;;;;0.79;70.52;100230.69;5198848;28;20080;-86
2022/01/19 06:12:28;;;;;;;52.70;22.55;;;;;;;0.80;70.40;100232.41;5203063;28;20526;-86
2022/01/19 06:15:20;;;;;;;50.83;23.27;;;;;;;0.57;71.26;100269.72;5200828;28;20084;-86
2022/01/19 06:18:12;;;;;;;48.65;23.85;;;;;;;0.69;70.82;100256.25;5201943;28;20195;-86
2022/01/19 06:21:02;;;;;;;51.78;22.30;;;;;;;0.75;70.26;100264.78;5186522;28;20099;-86
2022/01/19 06:24:00;;;;;;;51.05;22.10;;;;;;;0.62;70.94;100273.00;5187616;28;20097;-86
2022/01/19 06:26:50;;;;;;;46.58;22.10;;;;;;;0.53;70.40;100252.44;5184389;28;20072;-86
2022/01/19 06:29:41;;;;;;;48.63;21.02;;;;;;;0.50;71.54;100277.75;5191421;28;20125;-86
2022/01/19 06:32:32;;;;;;;49.92;20.17;;;;;;;0.93;70.84;100301.59;5203739;28;20458;-86
2022/01/19 06:35:23;;;;;;;35.45;18.25;;;;;;;0.86;69.63;100268.75;5184947;28;20049;-86
2022/01/19 06:38:52;;;;;;;50.25;19.02;;;;;;;0.25;70.35;100222.91;5200742;28;20053;-86
2022/01/19 06:41:56;;;;;;;45.95;18.38;;;;;;;0.64;70.34;100231.22;5206593;28;20054;-86
2022/01/19 06:44:49;;;;;;;41.50;17.03;;;;;;;0.61;69.25;100207.81;5202764;28;20046;-86
2022/01/19 06:47:42;;;;;;;43.42;19.15;;;;;;;0.46;69.86;100225.69;5189014;28;20049;-86
2022/01/19 06:50:34;;;;;;;43.30;18.85;;;;;;;0.75;69.38;100263.03;5185697;28;20059;-86
2022/01/19 06:53:26;;;;;;;43.13;18.42;;;;;;;0.11;70.82;100215.53;5204150;28;20321;-86
2022/01/19 06:56:37;;;;;;;47.83;19.13;;;;;;;0.12;72.03;100235.47;5186195;28;20069;-86
2022/01/19 06:59:51;;;;;;;41.72;20.15;;;;;;;0.46;71.80;100290.94;5200076;28;20403;-86
2022/01/19 07:03:08;;;;;;;49.42;19.77;;;;;;;0.77;70.48;100295.16;5191373;28;20076;-86
2022/01/19 07:06:03;;;;;;;45.13;20.33;;;;;;;0.54;71.23;100266.34;5202604;28;20056;-86
2022/01/19 07:09:12;;;;;;;46.13;19.85;;;;;;;0.51;71.17;100245.56;5201163;28;20435;-86
2022/01/19 07:12:11;;;;;;;49.90;20.42;;;;;;;1.32;69.19;100289.81;5201395;28;20668;-85
2022/01/19 07:15:03;;;;;;;48.38;20.65;;;;;;;1.32;68.27;100250.63;5202692;28;20048;-86
2022/01/19 07:17:53;;;;;;;53.67;20.27;;;;;;;0.94;70.50;100285.00;5203004;28;20060;-86
2022/01/19 07:20:44;;;;;;;58.55;21.17;;;;;;;0.89;69.02;100236.44;5204333;28;20228;-86
2022/01/19 07:23:34;;;;;;;40.58;19.80;;;;;;;0.79;70.39;100262.00;5199296;28;20033;-86
2022/01/19 07:26:25;;;;;;;50.40;21.45;;;;;;;0.84;68.29;100197.44;5204109;28;20422;-86
2022/01/19 07:29:16;;;;;;;47.08;20.60;;;;;;;1.00;68.93;100238.72;5188527;28;20064;-86
2022/01/19 07:32:12;;;;;;;44.75;20.88;;;;;;;1.06;68.80;100272.44;5187772;28;20056;-86
2022/01/19 07:35:04;;;;;;;47.33;20.67;;;;;;;0.90;68.89;100249.47;5199114;28;20046;-85
2022/01/19 07:37:55;;;;;;;50.83;21.27;;;;;;;0.94;67.54;100217.09;5212684;28;20057;-86
2022/01/19 07:40:45;;;;;;;48.45;20.65;;;;;;;1.20;69.03;100274.59;5192547;28;20072;-86
2022/01/19 07:43:37;;;;;;;52.72;20.63;;;;;;;0.62;71.11;100227.78;5201266;28;20045;-86
2022/01/19 07:46:48;;;;;;;48.55;20.85;;;;;;;0.60;70.40;100206.13;5196165;28;20446;-86
2022/01/19 07:49:54;;;;;;;52.13;21.23;;;;;;;0.78;70.77;100252.47;5197198;28;20601;-86
2022/01/19 07:53:00;;;;;;;49.03;24.13;;;;;;;0.64;71.46;100244.25;5198995;28;20113;-86
2022/01/19 07:56:04;;;;;;;49.10;22.25;;;;;;;0.06;72.68;100192.19;5188156;28;20052;-86
2022/01/19 07:59:17;;;;;;;51.40;20.85;;;;;;;0.62;72.07;100246.06;5197865;28;20459;-86
2022/01/19 08:02:12;;;;;;;49.13;21.83;;;;;;;1.07;69.90;100227.13;5201781;28;20107;-86
2022/01/19 08:05:21;;;;;;;52.45;21.20;;;;;;;0.91;71.86;100240.72;5196126;28;20048;-86
2022/01/19 08:08:15;;;;;;;48.60;22.27;;;;;;;0.63;70.58;100167.72;5183325;28;20167;-86
2022/01/19 08:11:05;;;;;;;46.03;22.65;;;;;;;1.31;69.66;100228.88;5196355;28;20529;-86
2022/01/19 08:13:59;;;;;;;51.90;23.05;;;;;;;1.35;69.46;100213.94;5203576;28;20053;-86
2022/01/19 08:16:54;;;;;;;57.17;22.85;;;;;;;1.58;68.90;100244.44;5219033;28;20119;-87
2022/01/19 08:19:47;;;;;;;58.20;23.88;;;;;;;1.40;68.09;100184.13;5182085;28;20052;-87
2022/01/19 08:22:38;;;;;;;56.28;23.00;;;;;;;0.99;68.80;100148.19;5184947;28;20276;-87
2022/01/19 08:25:45;;;;;;;51.08;22.52;;;;;;;1.52;68.09;100185.41;5192640;28;20049;-87
2022/01/19 08:28:36;;;;;;;51.72;23.25;;;;;;;1.53;67.91;100152.31;5191015;28;20167;-87
2022/01/19 08:31:27;;;;;;;52.60;23.42;;;;;;;2.04;67.87;100221.78;5188226;28;20057;-87
2022/01/19 08:34:40;;;;;;;48.22;23.15;;;;;;;2.35;66.81;100219.69;5196254;28;20034;-87
2022/01/19 08:37:57;;;;;;;50.72;21.00;;;;;;;1.72;67.53;100212.56;5201357;28;20056;-87
2022/01/19 08:40:49;;;;;;;44.33;21.70;;;;;;;1.53;68.77;100184.50;5194302;28;20045;-87
2022/01/19 08:43:43;;;;;;;47.72;22.38;;;;;;;1.57;68.68;100190.47;5197072;28;20049;-87
2022/01/19 08:46:33;;;;;;;52.15;22.45;;;;;;;1.31;69.36;100171.38;5191780;28;20561;-87
2022/01/19 08:49:53;;;;;;;48.38;21.20;;;;;;;2.11;68.10;100231.09;5198892;28;20053;-87
2022/01/19 08:53:15;;;;;;;50.30;22.05;;;;;;;2.28;66.78;100176.31;5200846;28;20538;-87
2022/01/19 08:56:13;;;;;;;45.65;22.30;;;;;;;2.04;66.29;100156.38;5191126;28;20060;-87
2022/01/19 08:59:04;;;;;;;44.03;21.80;;;;;;;2.47;66.79;100186.03;5205978;28;20045;-87
2022/01/19 09:01:57;;;;;;;43.72;22.02;;;;;;;2.39;65.87;100159.34;5185341;28;20139;-88
2022/01/19 09:04:48;;;;;;;44.40;21.70;;;;;;;2.95;65.66;100182.28;5196838;28;20130;-88
2022/01/19 09:07:38;;;;;;;45.33;23.00;;;;;;;3.07;66.06;100228.91;5205584;28;20414;-88
2022/01/19 09:10:29;;;;;;;50.58;22.13;;;;;;;2.87;64.48;100145.06;5203481;28;20064;-88
2022/01/19 09:13:26;;;;;;;41.42;20.95;;;;;;;3.50;64.50;100217.38;5192306;28;20124;-88
2022/01/19 09:16:17;;;;;;;41.20;20.15;;;;;;;3.82;63.75;100222.09;5202524;28;20104;-87
2022/01/19 09:19:08;;;;;;;39.55;19.17;;;;;;;4.35;63.52;100226.56;5201148;28;20526;-88
2022/01/19 09:21:58;;;;;;;34.42;19.70;;;;;;;4.93;61.27;100216.66;5186984;28;20064;-88
2022/01/19 09:24:49;;;;;;;43.70;20.67;;;;;;;5.21;59.67;100174.94;5205588;28;20139;-88
2022/01/19 09:27:40;;;;;;;39.15;18.90;;;;;;;4.90;58.48;100110.81;5201115;28;20609;-87
2022/01/19 09:30:31;;;;;;;43.13;20.10;;;;;;;4.77;60.62;100181.56;5201640;28;20049;-88
2022/01/19 09:33:23;;;;;;;33.28;18.27;;;;;;;4.42;61.23;100173.66;5198020;28;20046;-87
2022/01/19 09:36:31;;;;;;;43.50;19.45;;;;;;;4.07;62.13;100180.63;5202386;28;20048;-87
2022/01/19 09:39:24;;;;;;;38.45;19.15;;;;;;;4.19;63.03;100226.44;5201711;28;20056;-87
2022/01/19 09:42:15;;;;;;;38.55;19.65;;;;;;;4.04;63.08;100185.16;5200533;28;20060;-87
2022/01/19 09:45:05;;;;;;;38.13;20.15;;;;;;;3.93;62.67;100177.81;5202136;28;20143;-87
2022/01/19 09:47:55;;;;;;;38.95;20.58;;;;;;;4.07;63.56;100198.16;5190857;28;20053;-87
2022/01/19 09:50:45;;;;;;;44.00;21.15;;;;;;;4.04;64.27;100195.66;5201994;28;20055;-88
2022/01/19 09:53:35;;;;;;;41.05;20.38;;;;;;;3.86;63.78;100164.13;5204150;28;20093;-87
2022/01/19 09:56:26;;;;;;;53.38;28.20;;;;;;;4.14;64.70;100203.06;5197309;28;20061;-87
2022/01/19 09:59:17;;;;;;;49.28;22.60;;;;;;;3.75;63.88;100154.16;5200289;28;20099;-87
2022/01/19 10:02:10;;;;;;;56.33;28.98;;;;;;;3.98;64.06;100178.47;5201751;28;20219;-87
2022/01/19 10:05:08;;;;;;;32.38;18.10;;;;;;;4.20;63.34;100167.75;5201868;28;20099;-87
2022/01/19 10:07:59;;;;;;;45.67;21.98;;;;;;;4.30;63.34;100183.91;5200605;28;20053;-87
2022/01/19 10:11:04;;;;;;;45.95;22.98;;;;;;;4.02;63.91;100129.28;5203884;28;20423;-87
2022/01/19 10:17:09;;;;;;;42.22;21.17;;;;;;;4.16;63.59;100119.81;5204126;28;20107;-87
2022/01/19 10:20:00;;;;;;;43.40;19.42;;;;;;;4.11;62.78;100087.72;5188411;28;20048;-88
2022/01/19 10:22:51;;;;;;;43.30;20.13;;;;;;;4.50;63.04;100136.50;5204649;28;20167;-87
2022/01/19 10:25:50;;;;;;;38.38;19.90;;;;;;;4.65;62.21;100137.50;5199096;28;20482;-88
2022/01/19 10:29:03;;;;;;;35.47;18.83;;;;;;;4.84;61.74;100140.06;5203669;28;20056;-86
2022/01/19 10:32:03;;;;;;;39.60;18.70;;;;;;;4.30;61.20;100099.91;5184329;28;20073;-87
2022/01/19 10:34:54;;;;;;;36.08;18.23;;;;;;;4.38;62.83;100114.34;5190487;28;20061;-87
2022/01/19 10:37:46;;;;;;;34.63;17.75;;;;;;;4.53;62.30;100107.47;5225527;28;20052;-86
2022/01/19 10:40:39;;;;;;;36.97;18.50;;;;;;;4.91;61.93;100123.88;5206171;28;20622;-87
2022/01/19 10:43:38;;;;;;;38.25;20.23;;;;;;;4.93;62.51;100121.16;5200348;28;20056;-87
2022/01/19 10:46:31;;;;;;;35.88;19.75;;;;;;;4.98;62.16;100110.41;5203592;28;20096;-87
2022/01/19 10:49:21;;;;;;;43.50;21.87;;;;;;;4.60;61.90;100079.97;5202247;28;20057;-87
2022/01/19 10:52:36;;;;;;;36.45;20.05;;;;;;;4.83;61.97;100112.06;5181545;28;20498;-87
2022/01/19 10:55:38;;;;;;;39.20;19.38;;;;;;;4.57;61.78;100076.63;5224592;28;20037;-87
2022/01/19 10:58:29;;;;;;;34.08;18.17;;;;;;;4.86;62.20;100101.38;5178401;28;20486;-87
2022/01/19 11:01:36;;;;;;;37.08;19.70;;;;;;;4.75;61.02;100059.06;5205343;28;20057;-87
2022/01/19 11:04:28;;;;;;;37.28;18.30;;;;;;;5.20;61.39;100103.09;5219267;28;20034;-89
2022/01/19 11:07:44;;;;;;;37.03;19.15;;;;;;;5.29;60.73;100099.09;5201589;28;20124;-72
2022/01/19 11:10:35;;;;;;;35.13;17.45;;;;;;;5.14;61.55;100079.75;5199568;28;20045;-69
2022/01/19 11:13:40;;;;;;;32.40;16.77;;;;;;;5.35;61.20;100094.34;5201349;28;20048;-72
2022/01/19 11:16:33;;;;;;;36.60;15.93;;;;;;;5.28;61.33;100092.16;5198681;28;20059;-70
2022/01/19 11:19:24;;;;;;;33.83;16.38;;;;;;;5.15;60.74;100087.53;5202448;28;20056;-69
2022/01/19 11:22:36;;;;;;;27.85;14.75;;;;;;;5.27;60.97;100090.47;5198842;28;20052;-71
2022/01/19 11:25:41;;;;;;;27.25;15.60;;;;;;;5.38;60.39;100086.31;5201244;28;20412;-71
2022/01/19 11:28:42;;;;;;;27.73;13.75;;;;;;;5.11;60.52;100085.19;5200075;28;20071;-70
2022/01/19 11:31:32;;;;;;;26.73;13.43;;;;;;;4.61;62.08;100076.41;5171636;28;20500;-70
2022/01/19 11:34:47;;;;;;;25.95;13.63;;;;;;;4.15;63.02;100073.50;5200184;28;20187;-70
2022/01/19 11:37:38;;;;;;;28.42;14.13;;;;;;;4.08;63.51;100066.84;5198476;28;20138;-69
2022/01/19 11:40:35;;;;;;;30.17;14.38;;;;;;;5.03;62.07;100051.41;5196321;28;20589;-72
2022/01/19 11:43:29;;;;;;;27.20;13.48;;;;;;;4.22;63.23;100064.38;5183259;28;20115;-69
2022/01/19 11:46:29;;;;;;;29.63;13.70;;;;;;;4.45;63.05;100055.34;5194088;28;20128;-70
2022/01/19 11:49:50;;;;;;;24.98;13.10;;;;;;;5.33;61.02;100062.06;5197060;28;20041;-69
2022/01/19 11:52:44;;;;;;;29.48;13.32;;;;;;;5.81;59.86;100054.13;5186514;28;20458;-68
2022/01/19 11:55:35;;;;;;;19.60;11.50;;;;;;;5.85;59.24;100053.00;5197643;28;20049;-70
2022/01/19 11:58:25;;;;;;;22.05;13.52;;;;;;;5.31;60.70;100042.88;5193753;28;20048;-69
2022/01/19 12:01:24;;;;;;;25.67;14.10;;;;;;;5.21;61.03;100025.06;5194398;28;20441;-69
2022/01/19 12:04:23;;;;;;;30.17;13.68;;;;;;;5.14;61.79;100030.66;5198186;28;20415;-71
2022/01/19 12:07:37;;;;;;;24.77;13.15;;;;;;;5.30;60.68;100022.78;5190046;28;20048;-70
2022/01/19 12:10:31;;;;;;;25.45;13.57;;;;;;;5.85;59.60;100017.00;5193096;28;20127;-72
2022/01/19 12:19:30;;;;;;;23.42;13.13;;;;;;;6.02;59.65;99994.97;5185897;28;20097;-71
2022/01/19 12:22:22;;;;;;;29.07;14.23;;;;;;;5.98;60.20;100003.16;5198205;28;20411;-70
2022/01/19 12:25:13;;;;;;;24.83;12.65;;;;;;;5.04;61.10;100011.06;5190873;28;20269;-69
2022/01/19 12:28:03;;;;;;;20.58;12.32;;;;;;;5.91;59.17;100004.44;5199565;28;20052;-68
2022/01/19 12:30:54;;;;;;;25.08;12.88;;;;;;;6.51;58.06;100004.38;5191180;28;20102;-69
2022/01/19 12:34:03;;;;;;;27.08;13.07;;;;;;;6.56;58.44;99994.41;5197130;28;20048;-68
2022/01/19 12:36:58;;;;;;;27.33;12.63;;;;;;;6.25;57.83;99987.50;5187062;28;20041;-70
2022/01/19 12:39:47;;;;;;;24.83;12.07;;;;;;;5.59;60.40;99970.28;5191610;28;20455;-70
2022/01/19 12:42:43;;;;;;;25.35;12.85;;;;;;;5.96;60.04;99976.94;5193917;28;20260;-70
2022/01/19 12:45:48;;;;;;;24.40;11.85;;;;;;;6.19;58.74;99975.56;5187531;28;20053;-71
2022/01/19 12:48:47;;;;;;;22.52;11.85;;;;;;;5.91;58.68;99972.84;5191575;28;20131;-68
2022/01/19 12:51:41;;;;;;;25.65;12.23;;;;;;;6.09;59.11;99964.75;5191032;28;20092;-69
2022/01/19 12:54:31;;;;;;;27.48;11.70;;;;;;;6.59;58.79;99958.19;5189213;28;20056;-69
2022/01/19 12:57:21;;;;;;;20.85;11.18;;;;;;;6.53;57.92;99957.72;5195480;28;20064;-70
2022/01/19 13:00:21;;;;;;;20.92;11.90;;;;;;;6.67;58.35;99955.06;5190278;28;20065;-71
2022/01/19 13:03:22;;;;;;;19.02;10.48;;;;;;;7.31;56.30;99947.47;5196519;28;20093;-72
2022/01/19 13:06:14;;;;;;;18.67;10.10;;;;;;;6.17;58.77;99935.31;5202754;28;20131;-71
2022/01/19 13:09:07;;;;;;;18.45;10.90;;;;;;;6.29;58.44;99933.69;5192277;28;20183;-68
2022/01/19 13:12:00;;;;;;;17.70;9.38;;;;;;;5.57;59.41;99917.78;5186139;28;20187;-70
2022/01/19 13:14:55;;;;;;;15.73;8.65;;;;;;;5.30;59.52;99916.75;5198672;28;20049;-68
2022/01/19 13:17:49;;;;;;;17.98;9.00;;;;;;;6.31;57.44;99923.94;5199786;28;20462;-68
2022/01/19 13:20:52;;;;;;;14.30;8.07;;;;;;;5.85;57.74;99909.06;5204495;28;20191;-68
2022/01/19 13:24:08;;;;;;;15.70;8.85;;;;;;;5.71;58.67;99909.06;5189306;28;20568;-68
2022/01/19 13:27:04;;;;;;;16.08;8.57;;;;;;;5.58;58.68;99908.94;5195179;28;20749;-67
2022/01/19 13:29:54;;;;;;;15.98;8.93;;;;;;;5.85;57.86;99900.34;5195403;28;20053;-70
2022/01/19 13:32:44;;;;;;;16.98;8.70;;;;;;;6.44;56.83;99901.16;5200408;28;20420;-68
2022/01/19 13:35:34;;;;;;;14.93;8.35;;;;;;;6.44;56.27;99901.16;5193060;28;20167;-68
2022/01/19 13:38:26;;;;;;;15.95;8.02;;;;;;;6.73;56.75;99896.69;5202445;28;20518;-68
2022/01/19 13:41:16;;;;;;;14.05;8.25;;;;;;;6.87;56.19;99892.34;5195078;28;20084;-70
2022/01/19 13:44:08;;;;;;;15.50;7.55;;;;;;;6.87;55.74;99893.19;5200771;28;20060;-67
2022/01/19 13:47:10;;;;;;;12.40;7.20;;;;;;;6.56;54.70;99894.28;5188033;28;20053;-69
2022/01/19 13:50:00;;;;;;;14.50;8.25;;;;;;;7.14;54.11;99897.59;5204382;28;20064;-67
2022/01/19 13:52:51;;;;;;;15.68;7.43;;;;;;;6.93;54.81;99892.78;5202304;28;20075;-67
2022/01/19 13:55:41;;;;;;;13.27;7.70;;;;;;;6.69;55.01;99887.28;5187475;28;20050;-66
2022/01/19 13:58:35;;;;;;;14.60;7.45;;;;;;;7.16;54.61;99891.28;5202748;28;20052;-67
2022/01/19 14:01:41;;;;;;;13.50;7.10;;;;;;;7.04;54.95;99895.56;5200442;28;20057;-68
2022/01/19 14:04:34;;;;;;;13.63;7.07;;;;;;;6.70;55.39;99882.88;5196091;28;20132;-68
2022/01/19 14:07:26;;;;;;;12.50;7.05;;;;;;;6.83;54.54;99886.41;5185013;28;20139;-67
2022/01/19 14:10:16;;;;;;;14.18;7.50;;;;;;;7.28;53.47;99889.63;5203031;28;20107;-69
2022/01/19 14:13:35;;;;;;;17.08;7.80;;;;;;;7.07;53.86;99890.09;5188537;28;20413;-68
2022/01/19 14:16:32;;;;;;;14.32;6.90;;;;;;;7.46;53.95;99890.22;5177418;28;20049;-67
2022/01/19 14:19:25;;;;;;;13.45;8.00;;;;;;;7.13;53.96;99875.66;5198372;28;20131;-67
2022/01/19 14:22:28;;;;;;;18.17;7.72;;;;;;;6.51;55.42;99865.56;5194097;28;20148;-67
2022/01/19 14:25:18;;;;;;;17.98;8.35;;;;;;;6.81;55.28;99880.38;5179989;28;20535;-67
2022/01/19 14:28:15;;;;;;;15.55;8.50;;;;;;;7.34;54.57;99881.31;5178421;28;20405;-68
2022/01/19 14:31:12;;;;;;;16.85;7.78;;;;;;;7.01;55.26;99861.47;5188755;28;20139;-67
2022/01/19 14:34:06;;;;;;;16.88;8.63;;;;;;;7.42;54.84;99875.56;5185819;28;20046;-67
2022/01/19 14:37:11;;;;;;;15.15;8.70;;;;;;;7.10;53.97;99867.13;5199321;28;20496;-68
2022/01/19 14:40:09;;;;;;;18.08;8.73;;;;;;;6.86;55.55;99866.94;5202902;28;20126;-69
2022/01/19 14:42:59;;;;;;;19.40;8.95;;;;;;;7.51;55.10;99864.34;5198964;28;20634;-68
2022/01/19 14:45:54;;;;;;;19.25;9.50;;;;;;;7.25;54.64;99855.53;5195401;28;20121;-71
2022/01/19 14:48:47;;;;;;;15.55;7.82;;;;;;;7.16;55.80;99853.53;5181432;28;20557;-67
2022/01/19 14:51:40;;;;;;;18.02;10.02;;;;;;;6.74;55.90;99850.94;5199086;28;20068;-66
2022/01/19 14:54:32;;;;;;;23.02;9.50;;;;;;;6.86;55.71;99851.94;5184015;28;20059;-70
2022/01/19 14:57:23;;;;;;;20.63;9.65;;;;;;;6.51;57.27;99849.75;5178752;28;20405;-67
2022/01/19 15:00:15;;;;;;;20.88;10.30;;;;;;;6.76;57.43;99853.50;5198314;28;20056;-70
2022/01/19 15:03:06;;;;;;;17.75;9.10;;;;;;;6.57;56.84;99841.47;5199270;28;20061;-67